createdAt,value
2022-10-28T00:01:08.396Z,6.35
2022-10-28T00:03:40.265Z,9.20
2022-10-28T00:06:10.242Z,8.70
2022-10-28T00:08:37.627Z,5.05
2022-10-28T00:11:07.374Z,9.27
2022-10-28T00:13:35.307Z,7.45
2022-10-28T00:16:13.545Z,7.57
2022-10-28T00:18:41.457Z,9.10
2022-10-28T00:21:12.219Z,9.48
2022-10-28T00:23:40.098Z,9.43
2022-10-28T00:26:11.749Z,7.60
2022-10-28T00:28:43.855Z,9.73
2022-10-28T00:31:13.758Z,6.25
2022-10-28T00:33:41.250Z,6.90
2022-10-28T00:36:12.941Z,5.22
2022-10-28T00:38:40.949Z,6.55
2022-10-28T00:41:09.521Z,6.88
2022-10-28T00:43:37.710Z,6.80
2022-10-28T00:46:09.733Z,6.15
2022-10-28T00:48:41.186Z,5.68
2022-10-28T00:51:09.725Z,6.22
2022-10-28T00:53:40.599Z,6.88
2022-10-28T00:56:10.125Z,5.25
2022-10-28T00:58:37.601Z,5.38
2022-10-28T01:01:05.016Z,5.32
2022-10-28T01:03:32.038Z,6.80
2022-10-28T01:06:00.957Z,6.88
2022-10-28T01:08:28.307Z,4.47
2022-10-28T01:11:14.091Z,4.15
2022-10-28T01:14:04.153Z,6.32
2022-10-28T01:16:45.308Z,6.20
2022-10-28T01:19:53.693Z,5.53
2022-10-28T01:22:45.590Z,4.90
2022-10-28T01:25:12.506Z,3.85
2022-10-28T01:28:07.259Z,5.10
2022-10-28T01:31:21.520Z,4.78
2022-10-28T01:33:54.358Z,6.95
2022-10-28T01:36:40.218Z,4.95
2022-10-28T01:39:32.818Z,5.97
2022-10-28T01:42:26.503Z,6.38
2022-10-28T01:45:08.880Z,6.30
2022-10-28T01:47:55.450Z,6.20
2022-10-28T01:50:30.851Z,7.10
2022-10-28T01:53:03.477Z,6.38
2022-10-28T01:58:03.582Z,8.75
2022-10-28T02:00:32.772Z,6.50
2022-10-28T02:02:59.944Z,6.85
2022-10-28T02:05:51.877Z,6.80
2022-10-28T02:08:18.847Z,7.10
2022-10-28T02:11:06.079Z,7.93
2022-10-28T02:13:54.260Z,6.40
2022-10-28T02:16:48.528Z,5.63
2022-10-28T02:19:38.593Z,7.68
2022-10-28T02:22:24.706Z,5.43
2022-10-28T02:25:18.849Z,6.40
2022-10-28T02:27:58.192Z,6.40
2022-10-28T02:30:39.445Z,5.28
2022-10-28T02:33:11.742Z,6.05
2022-10-28T02:35:45.186Z,6.25
2022-10-28T02:38:21.042Z,6.35
2022-10-28T02:40:53.933Z,6.43
2022-10-28T02:43:23.349Z,7.43
2022-10-28T02:45:55.657Z,10.25
2022-10-28T02:48:33.516Z,7.80
2022-10-28T02:51:06.993Z,7.22
2022-10-28T02:53:45.006Z,6.93
2022-10-28T02:56:15.771Z,6.10
2022-10-28T02:58:44.889Z,5.85
2022-10-28T03:01:12.029Z,6.03
2022-10-28T03:03:39.621Z,4.75
2022-10-28T03:06:06.647Z,5.57
2022-10-28T03:08:33.647Z,5.13
2022-10-28T03:11:00.653Z,3.90
2022-10-28T03:13:27.662Z,3.90
2022-10-28T03:15:54.691Z,3.47
2022-10-28T03:18:21.826Z,3.20
2022-10-28T03:20:48.827Z,3.60
2022-10-28T03:23:15.863Z,3.70
2022-10-28T03:25:42.881Z,4.25
2022-10-28T03:28:09.869Z,3.55
2022-10-28T03:30:36.970Z,6.57
2022-10-28T03:33:04.058Z,4.30
2022-10-28T03:35:31.114Z,3.58
2022-10-28T03:37:58.213Z,4.05
2022-10-28T03:40:25.321Z,5.95
2022-10-28T03:42:52.719Z,3.25
2022-10-28T03:45:19.942Z,3.53
2022-10-28T03:47:47.179Z,3.22
2022-10-28T03:50:14.241Z,3.80
2022-10-28T03:52:44.221Z,3.60
2022-10-28T03:55:11.237Z,3.75
2022-10-28T03:57:38.289Z,3.17
2022-10-28T04:00:06.131Z,4.00
2022-10-28T04:02:38.714Z,4.15
2022-10-28T04:05:05.940Z,3.10
2022-10-28T04:07:32.968Z,5.90
2022-10-28T04:09:59.982Z,3.83
2022-10-28T04:12:29.306Z,4.15
2022-10-28T04:14:56.350Z,3.40
2022-10-28T04:17:23.496Z,7.07
2022-10-28T04:19:50.509Z,3.83
2022-10-28T04:22:17.934Z,4.80
2022-10-28T04:24:44.920Z,3.78
2022-10-28T04:27:11.993Z,4.05
2022-10-28T04:29:39.059Z,3.92
2022-10-28T04:32:06.857Z,4.00
2022-10-28T04:34:33.882Z,4.10
2022-10-28T04:37:00.898Z,4.55
2022-10-28T04:39:27.966Z,5.20
2022-10-28T04:41:54.959Z,4.55
2022-10-28T04:44:21.939Z,5.20
2022-10-28T04:46:49.004Z,4.05
2022-10-28T04:49:16.065Z,3.67
2022-10-28T04:51:43.081Z,4.05
2022-10-28T04:54:10.098Z,3.33
2022-10-28T04:56:37.119Z,4.43
2022-10-28T04:59:04.211Z,4.35
2022-10-28T05:01:31.343Z,4.60
2022-10-28T05:03:58.409Z,4.47
2022-10-28T05:06:25.402Z,3.92
2022-10-28T05:08:52.375Z,5.18
2022-10-28T05:11:19.374Z,3.92
2022-10-28T05:13:46.546Z,4.43
2022-10-28T05:16:13.581Z,5.80
2022-10-28T05:18:40.692Z,4.70
2022-10-28T05:21:07.742Z,4.05
2022-10-28T05:23:34.786Z,4.43
2022-10-28T05:26:02.006Z,3.80
2022-10-28T05:28:29.009Z,4.18
2022-10-28T05:30:56.095Z,4.32
2022-10-28T05:33:23.390Z,4.93
2022-10-28T05:35:50.885Z,5.53
2022-10-28T05:38:18.259Z,6.13
2022-10-28T05:40:45.241Z,8.80
2022-10-28T05:43:12.394Z,6.90
2022-10-28T05:45:39.414Z,8.73
2022-10-28T05:48:06.853Z,8.45
2022-10-28T05:50:33.918Z,6.80
2022-10-28T05:53:00.949Z,6.82
2022-10-28T05:55:29.563Z,5.78
2022-10-28T05:57:57.506Z,6.97
2022-10-28T06:00:26.757Z,5.32
2022-10-28T06:03:02.526Z,5.45
2022-10-28T06:05:29.870Z,5.38
2022-10-28T06:07:56.984Z,6.85
2022-10-28T06:10:24.122Z,5.68
2022-10-28T06:12:49.745Z,7.47
2022-10-28T06:15:16.919Z,5.38
2022-10-28T06:17:47.307Z,6.50
2022-10-28T06:20:15.587Z,5.88
2022-10-28T06:22:53.919Z,6.05
2022-10-28T06:25:22.422Z,6.72
2022-10-28T06:27:57.637Z,5.20
2022-10-28T06:30:25.793Z,5.57
2022-10-28T06:32:56.477Z,7.28
2022-10-28T06:35:23.586Z,6.32
2022-10-28T06:37:55.344Z,6.53
2022-10-28T06:40:26.214Z,7.10
2022-10-28T06:43:01.834Z,8.98
2022-10-28T06:45:30.769Z,9.07
2022-10-28T06:48:01.932Z,10.18
2022-10-28T06:50:30.146Z,9.43
2022-10-28T06:52:58.312Z,9.52
2022-10-28T06:55:26.554Z,7.85
2022-10-28T06:57:54.847Z,9.00
2022-10-28T07:00:22.181Z,7.55
2022-10-28T07:02:53.577Z,6.82
2022-10-28T07:05:22.132Z,6.30
2022-10-28T07:07:49.627Z,6.90
2022-10-28T07:10:16.709Z,5.63
2022-10-28T07:12:43.691Z,6.55
2022-10-28T07:15:11.176Z,5.72
2022-10-28T07:17:38.233Z,6.38
2022-10-28T07:20:05.687Z,5.32
2022-10-28T07:22:32.679Z,4.32
2022-10-28T07:24:59.680Z,5.85
2022-10-28T07:27:26.694Z,4.20
2022-10-28T07:29:53.714Z,4.32
2022-10-28T07:32:20.801Z,4.57
2022-10-28T07:34:47.833Z,3.85
2022-10-28T07:37:14.985Z,3.60
2022-10-28T07:39:42.014Z,3.97
2022-10-28T07:42:09.031Z,5.90
2022-10-28T07:44:36.000Z,3.67
2022-10-28T07:47:03.112Z,4.25
2022-10-28T07:49:30.167Z,4.38
2022-10-28T07:51:57.351Z,5.07
2022-10-28T07:54:24.414Z,3.90
2022-10-28T07:56:51.436Z,5.70
2022-10-28T07:59:25.699Z,5.15
2022-10-28T08:01:55.021Z,5.47
2022-10-28T08:04:22.322Z,5.75
2022-10-28T08:06:49.356Z,5.88
2022-10-28T08:09:16.893Z,6.93
2022-10-28T08:11:43.888Z,8.25
2022-10-28T08:14:10.889Z,7.88
2022-10-28T08:16:37.902Z,7.38
2022-10-28T08:19:07.656Z,5.97
2022-10-28T08:21:34.987Z,5.50
2022-10-28T08:24:02.032Z,5.57
2022-10-28T08:26:29.057Z,5.13
2022-10-28T08:28:56.162Z,5.60
2022-10-28T08:31:23.221Z,4.47
2022-10-28T08:33:50.205Z,6.00
2022-10-28T08:36:17.414Z,5.00
2022-10-28T08:38:46.217Z,5.50
2022-10-28T08:41:31.412Z,3.97
2022-10-28T08:44:26.194Z,4.28
2022-10-28T08:47:09.849Z,6.65
2022-10-28T08:49:42.445Z,5.32
2022-10-28T08:52:19.633Z,6.85
2022-10-28T08:54:53.689Z,5.97
2022-10-28T08:57:47.835Z,6.20
2022-10-28T09:00:22.186Z,5.75
2022-10-28T09:03:12.325Z,6.03
2022-10-28T09:05:41.169Z,5.50
2022-10-28T09:08:22.723Z,5.45
2022-10-28T09:11:10.607Z,4.85
2022-10-28T09:13:59.646Z,3.80
2022-10-28T09:16:47.022Z,5.20
2022-10-28T09:19:43.706Z,3.70
2022-10-28T09:22:38.741Z,5.03
2022-10-28T09:25:30.768Z,3.88
2022-10-28T09:28:30.275Z,3.22
2022-10-28T09:31:15.255Z,4.78
2022-10-28T09:33:51.092Z,3.28
2022-10-28T09:36:55.744Z,4.20
2022-10-28T09:39:28.558Z,3.70
2022-10-28T09:42:00.922Z,3.28
2022-10-28T09:44:49.198Z,4.43
2022-10-28T09:47:27.331Z,4.07
2022-10-28T09:49:58.859Z,3.50
2022-10-28T09:52:40.512Z,3.72
2022-10-28T09:55:18.746Z,4.85
2022-10-28T09:57:45.758Z,3.40
2022-10-28T10:00:14.846Z,2.95
2022-10-28T10:02:43.677Z,3.78
2022-10-28T10:05:17.554Z,3.42
2022-10-28T10:07:50.953Z,4.10
2022-10-28T10:10:23.771Z,3.55
2022-10-28T10:12:52.702Z,3.50
2022-10-28T10:15:28.700Z,3.97
2022-10-28T10:17:59.778Z,2.80
2022-10-28T10:20:26.944Z,2.80
2022-10-28T10:22:54.224Z,3.33
2022-10-28T10:25:25.237Z,3.33
2022-10-28T10:27:59.716Z,3.10
2022-10-28T10:30:37.924Z,2.72
2022-10-28T10:33:07.353Z,2.75
2022-10-28T10:35:37.229Z,3.53
2022-10-28T10:38:07.321Z,2.60
2022-10-28T10:40:37.020Z,3.15
2022-10-28T10:43:31.456Z,2.65
2022-10-28T10:46:16.375Z,3.00
2022-10-28T10:48:44.358Z,3.28
2022-10-28T10:51:25.301Z,3.35
2022-10-28T10:53:57.649Z,24.83
2022-10-28T10:56:30.379Z,6.15
2022-10-28T10:59:03.085Z,3.95
2022-10-28T11:01:38.588Z,4.00
2022-10-28T11:04:07.690Z,3.58
2022-10-28T11:06:39.445Z,3.20
2022-10-28T11:09:17.382Z,3.00
2022-10-28T11:11:44.657Z,4.32
2022-10-28T11:14:13.283Z,2.45
2022-10-28T11:17:21.879Z,2.95
2022-10-28T11:19:53.718Z,2.83
2022-10-28T11:22:41.251Z,3.55
2022-10-28T11:25:35.738Z,3.60
2022-10-28T11:28:05.402Z,4.13
2022-10-28T11:30:55.415Z,2.42
2022-10-28T11:33:37.088Z,3.47
2022-10-28T11:36:07.287Z,3.90
2022-10-28T11:38:55.782Z,2.90
2022-10-28T11:41:39.260Z,3.97
2022-10-28T11:44:23.906Z,3.60
2022-10-28T11:47:05.477Z,2.78
2022-10-28T11:49:59.081Z,2.95
2022-10-28T11:52:53.911Z,3.05
2022-10-28T11:55:20.898Z,3.67
2022-10-28T11:58:00.135Z,3.25
2022-10-28T12:00:49.160Z,5.10
2022-10-28T12:03:36.690Z,5.05
2022-10-28T12:06:28.325Z,2.75
2022-10-28T12:09:19.836Z,3.33
2022-10-28T12:12:02.040Z,3.85
2022-10-28T12:14:43.409Z,3.92
2022-10-28T12:17:42.586Z,3.50
2022-10-28T12:20:24.440Z,3.35
2022-10-28T12:22:55.240Z,3.43
2022-10-28T12:25:30.761Z,3.55
2022-10-28T12:28:04.616Z,3.70
2022-10-28T12:30:36.172Z,4.00
2022-10-28T12:33:24.775Z,2.67
2022-10-28T12:35:56.847Z,3.05
2022-10-28T12:38:46.800Z,3.67
2022-10-28T12:41:17.059Z,3.72
2022-10-28T12:44:07.214Z,3.63
2022-10-28T12:47:02.106Z,3.28
2022-10-28T12:49:49.294Z,2.72
2022-10-28T12:52:31.660Z,2.70
2022-10-28T12:55:11.035Z,4.05
2022-10-28T12:57:39.541Z,2.70
2022-10-28T13:00:16.383Z,2.72
2022-10-28T13:02:50.727Z,4.25
2022-10-28T13:05:40.831Z,3.65
2022-10-28T13:08:32.417Z,2.88
2022-10-28T13:11:35.197Z,5.50
2022-10-28T13:14:13.772Z,3.30
2022-10-28T13:16:52.499Z,3.28
2022-10-28T13:19:39.441Z,3.83
2022-10-28T13:25:19.849Z,3.47
2022-10-28T13:27:48.491Z,3.70
2022-10-28T13:30:21.933Z,3.47
2022-10-28T13:33:01.358Z,4.47
2022-10-28T13:35:30.797Z,3.50
2022-10-28T13:37:59.749Z,3.53
2022-10-28T13:40:33.741Z,2.58
2022-10-28T13:43:02.080Z,4.22
2022-10-28T13:45:50.373Z,3.30
2022-10-28T13:48:29.372Z,3.85
2022-10-28T13:51:11.584Z,3.00
2022-10-28T13:53:47.675Z,3.20
2022-10-28T13:56:17.573Z,3.38
2022-10-28T13:59:10.809Z,4.03
2022-10-28T14:01:43.786Z,2.65
2022-10-28T14:04:34.852Z,2.65
2022-10-28T14:07:11.317Z,3.20
2022-10-28T14:09:41.425Z,3.22
2022-10-28T14:12:21.496Z,2.70
2022-10-28T14:15:02.008Z,3.00
2022-10-28T14:17:39.684Z,2.83
2022-10-28T14:20:51.273Z,3.25
2022-10-28T14:23:21.278Z,2.85
2022-10-28T14:25:51.105Z,3.60
2022-10-28T14:28:26.987Z,3.90
2022-10-28T14:31:10.353Z,2.70
2022-10-28T14:33:46.028Z,3.28
2022-10-28T14:36:19.447Z,3.00
2022-10-28T14:39:08.437Z,2.85
2022-10-28T14:42:00.328Z,2.85
2022-10-28T14:44:56.689Z,5.47
2022-10-28T14:47:51.659Z,4.07
2022-10-28T14:50:50.365Z,3.75
2022-10-28T14:53:24.172Z,2.92
2022-10-28T14:55:58.699Z,3.78
2022-10-28T14:58:30.532Z,3.08
2022-10-28T15:01:16.116Z,2.75
2022-10-28T15:03:50.372Z,2.50
2022-10-28T15:06:24.724Z,3.22
2022-10-28T15:08:53.367Z,2.90
2022-10-28T15:11:21.347Z,3.60
2022-10-28T15:13:54.303Z,4.43
2022-10-28T15:16:23.906Z,4.45
2022-10-28T15:18:53.944Z,4.97
2022-10-28T15:21:22.738Z,4.18
2022-10-28T15:24:02.115Z,5.38
2022-10-28T15:26:29.415Z,3.15
2022-10-28T15:28:56.603Z,3.13
2022-10-28T15:31:23.724Z,3.75
2022-10-28T15:33:50.744Z,3.33
2022-10-28T15:36:27.015Z,4.43
2022-10-28T15:39:17.058Z,3.60
2022-10-28T15:41:46.142Z,4.88
2022-10-28T15:44:33.636Z,4.60
2022-10-28T15:47:06.672Z,5.45
2022-10-28T15:49:34.198Z,8.00
2022-10-28T15:52:35.128Z,7.45
2022-10-28T15:55:30.619Z,6.20
2022-10-28T15:58:14.985Z,5.22
2022-10-28T16:00:56.386Z,6.10
2022-10-28T16:03:41.482Z,7.97
2022-10-28T16:06:33.693Z,8.25
2022-10-28T16:09:05.130Z,7.80
2022-10-28T16:11:36.318Z,7.38
2022-10-28T16:14:19.408Z,7.03
2022-10-28T16:16:46.717Z,5.80
2022-10-28T16:19:28.976Z,6.18
2022-10-28T16:21:56.344Z,5.43
2022-10-28T16:24:23.460Z,5.30
2022-10-28T16:26:50.478Z,5.97
2022-10-28T16:29:17.482Z,5.05
2022-10-28T16:31:50.263Z,5.53
2022-10-28T16:34:17.287Z,4.90
2022-10-28T16:36:44.337Z,4.28
2022-10-28T16:39:13.075Z,5.22
2022-10-28T16:41:40.878Z,4.85
2022-10-28T16:44:17.901Z,4.65
2022-10-28T16:46:45.043Z,5.05
2022-10-28T16:49:12.207Z,5.90
2022-10-28T16:51:39.815Z,5.93
2022-10-28T16:54:07.500Z,6.65
2022-10-28T16:56:34.491Z,6.32
2022-10-28T16:59:01.528Z,7.22
2022-10-28T17:01:28.697Z,7.75
2022-10-28T17:03:56.053Z,9.93
2022-10-28T17:06:23.316Z,8.90
2022-10-28T17:09:02.547Z,7.88
2022-10-28T17:13:58.876Z,8.00
2022-10-28T17:16:25.920Z,7.82
2022-10-28T17:18:52.990Z,7.45
2022-10-28T17:21:19.995Z,7.43
2022-10-28T17:23:48.084Z,7.68
2022-10-28T17:26:15.210Z,7.72
2022-10-28T17:28:42.259Z,7.88
2022-10-28T17:31:09.917Z,7.13
2022-10-28T17:33:36.973Z,9.30
2022-10-28T17:36:06.984Z,11.02
2022-10-28T17:38:34.264Z,9.95
2022-10-28T17:41:01.558Z,9.93
2022-10-28T17:43:28.742Z,10.65
2022-10-28T17:46:06.984Z,11.55
2022-10-28T17:48:34.661Z,9.65
2022-10-28T17:51:01.691Z,14.55
2022-10-28T17:53:28.734Z,23.02
2022-10-28T17:56:01.046Z,18.77
2022-10-28T17:58:28.833Z,14.13
2022-10-28T18:00:58.152Z,11.00
2022-10-28T18:03:25.908Z,9.45
2022-10-28T18:05:53.635Z,10.05
2022-10-28T18:08:21.620Z,9.68
2022-10-28T18:10:57.595Z,9.77
2022-10-28T18:13:32.317Z,8.88
2022-10-28T18:16:10.216Z,10.30
2022-10-28T18:18:42.019Z,9.90
2022-10-28T18:23:41.027Z,9.90
2022-10-28T18:26:12.302Z,10.35
2022-10-28T18:28:40.619Z,10.25
2022-10-28T18:31:11.794Z,7.47
2022-10-28T18:33:38.803Z,7.97
2022-10-28T18:36:17.738Z,9.73
2022-10-28T18:38:44.958Z,9.15
2022-10-28T18:41:14.307Z,9.80
2022-10-28T18:43:41.594Z,8.25
2022-10-28T18:46:09.241Z,9.75
2022-10-28T18:48:36.773Z,7.93
2022-10-28T18:51:06.852Z,10.40
2022-10-28T18:53:39.037Z,13.40
2022-10-28T18:56:09.950Z,11.65
2022-10-28T18:58:37.398Z,10.32
2022-10-28T19:01:10.494Z,10.38
2022-10-28T19:03:38.338Z,8.93
2022-10-28T19:06:10.988Z,8.98
2022-10-28T19:11:06.722Z,7.93
2022-10-28T19:13:38.956Z,11.32
2022-10-28T19:16:07.406Z,8.10
2022-10-28T19:18:38.253Z,8.10
2022-10-28T19:21:16.248Z,7.97
2022-10-28T19:23:43.518Z,7.72
2022-10-28T19:26:13.602Z,8.48
2022-10-28T19:28:43.163Z,8.80
2022-10-28T19:31:16.938Z,9.45
2022-10-28T19:33:45.210Z,9.30
2022-10-28T19:36:38.691Z,10.85
2022-10-28T19:39:05.786Z,9.93
2022-10-28T19:41:33.037Z,8.75
2022-10-28T19:44:01.985Z,8.00
2022-10-28T19:46:31.304Z,8.25
2022-10-28T19:48:59.690Z,8.07
2022-10-28T19:51:29.369Z,8.25
2022-10-28T19:53:58.967Z,8.88
2022-10-28T19:56:27.378Z,7.50
2022-10-28T19:58:56.511Z,8.45
2022-10-28T20:01:25.421Z,9.35
2022-10-28T20:03:54.189Z,9.25
2022-10-28T20:06:25.731Z,9.65
2022-10-28T20:08:53.375Z,7.38
2022-10-28T20:11:26.817Z,8.63
2022-10-28T20:13:56.013Z,9.32
2022-10-28T20:16:24.384Z,9.20
2022-10-28T20:18:51.492Z,10.15
2022-10-28T20:21:20.694Z,9.23
2022-10-28T20:26:18.786Z,9.25
2022-10-28T20:28:45.848Z,8.50
2022-10-28T20:31:15.500Z,10.38
2022-10-28T20:33:44.712Z,8.48
2022-10-28T20:36:26.807Z,9.40
2022-10-28T20:38:59.661Z,8.77
2022-10-28T20:41:29.729Z,7.90
2022-10-28T20:43:57.595Z,8.73
2022-10-28T20:46:25.882Z,8.20
2022-10-28T20:48:56.747Z,7.97
2022-10-28T20:51:26.529Z,11.45
2022-10-28T20:53:54.102Z,8.68
2022-10-28T20:56:26.873Z,7.82
2022-10-28T20:58:55.544Z,8.25
2022-10-28T21:01:24.021Z,9.55
2022-10-28T21:03:59.636Z,7.70
2022-10-28T21:06:27.729Z,8.40
2022-10-28T21:08:55.175Z,9.13
2022-10-28T21:11:23.546Z,7.53
2022-10-28T21:13:56.380Z,8.98
2022-10-28T21:16:24.804Z,9.45
2022-10-28T21:18:52.205Z,8.75
2022-10-28T21:21:20.883Z,8.10
2022-10-28T21:23:48.098Z,8.93
2022-10-28T21:26:15.463Z,8.10
2022-10-28T21:28:42.557Z,8.85
2022-10-28T21:31:12.931Z,8.27
2022-10-28T21:33:41.026Z,10.85
2022-10-28T21:36:11.882Z,9.00
2022-10-28T21:38:39.373Z,10.05
2022-10-28T21:41:19.611Z,10.00
2022-10-28T21:43:51.953Z,8.80
2022-10-28T21:46:21.192Z,7.97
2022-10-28T21:48:48.558Z,10.57
2022-10-28T21:51:17.165Z,10.07
2022-10-28T21:53:44.827Z,8.57
2022-10-28T21:56:17.722Z,8.30
2022-10-28T21:58:47.669Z,8.98
2022-10-28T22:01:18.012Z,9.32
2022-10-28T22:03:45.195Z,8.73
2022-10-28T22:06:12.283Z,8.77
2022-10-28T22:08:39.338Z,8.52
2022-10-28T22:11:18.014Z,8.82
2022-10-28T22:13:45.609Z,9.85
2022-10-28T22:16:15.008Z,7.97
2022-10-28T22:18:42.531Z,8.35
2022-10-28T22:21:15.729Z,7.68
2022-10-28T22:23:43.132Z,11.15
2022-10-28T22:26:14.681Z,8.45
2022-10-28T22:28:41.960Z,8.07
2022-10-28T22:31:11.787Z,10.95
2022-10-28T22:33:39.418Z,9.07
2022-10-28T22:36:09.496Z,8.68
2022-10-28T22:38:38.936Z,8.45
2022-10-28T22:41:13.325Z,8.18
2022-10-28T22:43:41.827Z,9.05
2022-10-28T22:46:10.048Z,8.52
2022-10-28T22:48:37.725Z,8.63
2022-10-28T22:51:05.213Z,7.03
2022-10-28T22:53:32.486Z,7.65
2022-10-28T22:55:59.522Z,9.13
2022-10-28T22:58:27.782Z,8.48
2022-10-28T23:01:04.925Z,7.35
2022-10-28T23:03:36.701Z,8.48
2022-10-28T23:06:04.118Z,8.43
2022-10-28T23:08:31.586Z,8.13
2022-10-28T23:10:58.780Z,8.85
2022-10-28T23:13:26.384Z,8.52
2022-10-28T23:15:54.313Z,7.78
2022-10-28T23:18:25.506Z,9.27
2022-10-28T23:20:52.555Z,8.32
2022-10-28T23:23:20.321Z,7.68
2022-10-28T23:25:54.244Z,8.05
2022-10-28T23:28:21.503Z,8.20
2022-10-28T23:30:48.621Z,10.10
2022-10-28T23:33:15.774Z,7.93
2022-10-28T23:35:42.992Z,7.90
2022-10-28T23:38:11.663Z,7.75
2022-10-28T23:40:38.680Z,8.05
2022-10-28T23:43:05.656Z,8.00
2022-10-28T23:45:32.666Z,7.57
2022-10-28T23:47:59.655Z,6.80
2022-10-28T23:50:26.649Z,7.10
2022-10-28T23:52:55.457Z,7.85
2022-10-28T23:55:22.780Z,7.40
2022-10-28T23:57:49.796Z,7.28
